KHOU

William P Hobby Airport

Houston, Texas, USA
METAR KHOU 190253Z 10003KT 10SM OVC090 03/M04 A3043 RMK AO2 SLP309 T00281044 58001
Observed Flight Rules
Jan-19 @ 02:53 UTC (48 minutes ago) Visual Flight Rules
Wind Visibility Clouds
100° at 3 knots 10 miles
  • Overcast at 9,000' AGL
Temperatures Readings
Current 3°C / 37°F
Dewpoint -4°C / 25°F
Humidity 60%
Altimeter 30.43" Hg
Pressure 1030.9 hPa
Elevation 36
METAR KHOU 190253Z 10003KT 10SM OVC090 03/M04 A3043 RMK AO2 SLP309 T00281044 58001
Observed Flight Rules
Jan-19 @ 02:53 UTC
(48 minutes ago)
VFR
Wind Visibility
100° at 3 knots 10 miles
Clouds
  • Overcast at 9,000' AGL
Temperature Dewpoint
3°C / 37°F -4°C / 25°F
Humidity Altimeter Pressure
60% 30.43" Hg 1030.9 hPa